createdAt,value
2024-01-06T00:07:55.274Z,5.46
2024-01-06T00:17:59.576Z,5.44
2024-01-06T00:28:02.461Z,5.40
2024-01-06T00:38:06.624Z,5.37
2024-01-06T00:48:09.680Z,5.31
2024-01-06T00:58:14.203Z,5.37
2024-01-06T01:08:17.115Z,5.35
2024-01-06T01:18:21.522Z,5.39
2024-01-06T01:28:24.506Z,5.26
2024-01-06T01:38:28.657Z,5.28
2024-01-06T01:48:32.218Z,5.33
2024-01-06T01:58:36.630Z,5.34
2024-01-06T02:08:39.549Z,5.25
2024-01-06T02:18:43.946Z,5.26
2024-01-06T02:28:49.259Z,5.24
2024-01-06T02:38:52.109Z,5.24
2024-01-06T02:48:56.430Z,5.26
2024-01-06T02:58:59.217Z,5.18
2024-01-06T03:09:03.418Z,5.14
2024-01-06T03:19:06.310Z,5.10
2024-01-06T03:29:10.580Z,5.01
2024-01-06T03:39:14.454Z,5.04
2024-01-06T03:49:19.740Z,5.00
2024-01-06T03:59:22.812Z,5.08
2024-01-06T04:09:26.961Z,4.92
2024-01-06T04:19:30.116Z,4.80
2024-01-06T04:29:34.342Z,4.75
2024-01-06T04:39:38.005Z,4.74
2024-01-06T04:49:42.527Z,4.82
2024-01-06T04:59:45.761Z,4.85
2024-01-06T05:09:49.978Z,4.88
2024-01-06T05:19:52.950Z,4.86
2024-01-06T05:29:57.209Z,4.84
2024-01-06T05:40:02.469Z,4.78
2024-01-06T05:50:10.387Z,4.67
2024-01-06T06:00:14.850Z,4.72
2024-01-06T06:10:19.917Z,4.51
2024-01-06T06:20:22.762Z,4.67
2024-01-06T06:30:27.097Z,4.63
2024-01-06T06:40:30.003Z,4.57
2024-01-06T06:50:34.254Z,4.56
2024-01-06T07:00:37.342Z,4.54
2024-01-06T07:10:41.564Z,4.57
2024-01-06T07:20:44.403Z,4.57
2024-01-06T07:30:48.621Z,4.61
2024-01-06T07:40:51.428Z,4.64
2024-01-06T07:50:55.709Z,4.71
2024-01-06T08:00:58.626Z,4.80
2024-01-06T08:11:03.093Z,4.83
2024-01-06T08:21:06.387Z,4.79
2024-01-06T08:31:10.622Z,4.81
2024-01-06T08:41:13.468Z,4.89
2024-01-06T08:51:17.869Z,4.96
2024-01-06T09:01:21.030Z,5.04
2024-01-06T09:11:25.257Z,5.10
2024-01-06T09:21:28.231Z,5.19
2024-01-06T09:31:33.112Z,5.20
2024-01-06T09:41:36.466Z,5.17
2024-01-06T09:51:41.653Z,5.19
2024-01-06T10:01:44.522Z,5.27
2024-01-06T10:11:48.683Z,5.31
2024-01-06T10:21:51.526Z,5.36
2024-01-06T10:31:56.519Z,5.46
2024-01-06T10:41:59.444Z,5.44
2024-01-06T10:52:03.821Z,5.36
2024-01-06T11:02:08.084Z,5.26
2024-01-06T11:12:12.338Z,5.08
2024-01-06T11:22:29.516Z,4.92
2024-01-06T11:32:37.267Z,5.04
2024-01-06T11:42:40.296Z,5.06
2024-01-06T11:52:44.550Z,5.04
2024-01-06T12:02:47.419Z,4.98
2024-01-06T12:13:00.356Z,5.01
2024-01-06T12:23:06.934Z,4.85
2024-01-06T12:33:12.109Z,4.82
2024-01-06T12:43:15.364Z,4.95
2024-01-06T12:53:19.484Z,4.90
2024-01-06T13:03:23.931Z,4.84
2024-01-06T13:13:28.475Z,4.75
2024-01-06T13:23:31.347Z,4.60
2024-01-06T13:33:35.712Z,4.56
2024-01-06T13:43:38.546Z,4.58
2024-01-06T13:53:42.681Z,4.72
2024-01-06T14:03:45.571Z,4.77
2024-01-06T14:13:52.730Z,4.53
2024-01-06T14:23:55.513Z,4.32
2024-01-06T14:34:01.072Z,4.35
2024-01-06T14:44:04.386Z,4.17
2024-01-06T14:54:12.477Z,4.16
2024-01-06T15:04:20.333Z,4.14
2024-01-06T15:14:25.689Z,4.24
2024-01-06T15:24:28.492Z,4.18
2024-01-06T15:34:32.944Z,4.11
2024-01-06T15:44:35.754Z,4.08
2024-01-06T15:54:40.074Z,3.84
2024-01-06T16:04:43.498Z,3.85
2024-01-06T16:14:47.952Z,3.76
2024-01-06T16:24:50.729Z,3.91
2024-01-06T16:34:55.182Z,3.78
2024-01-06T16:44:58.080Z,3.69
2024-01-06T16:55:02.570Z,3.83
2024-01-06T17:05:08.130Z,3.75
2024-01-06T17:15:13.050Z,3.65
2024-01-06T17:25:16.698Z,3.71
2024-01-06T17:35:20.682Z,3.60
2024-01-06T17:45:23.599Z,3.56
2024-01-06T17:55:29.226Z,3.57
2024-01-06T18:05:32.598Z,3.53
2024-01-06T18:15:36.900Z,3.41
2024-01-06T18:25:39.991Z,3.30
2024-01-06T18:35:44.315Z,3.27
2024-01-06T18:45:47.287Z,3.23
2024-01-06T18:55:51.851Z,3.19
2024-01-06T19:05:54.719Z,3.05
2024-01-06T19:15:59.040Z,3.07
2024-01-06T19:26:03.792Z,3.01
2024-01-06T19:36:08.885Z,2.91
2024-01-06T19:46:13.176Z,2.80
2024-01-06T19:56:17.424Z,2.81
2024-01-06T20:06:20.469Z,2.71
2024-01-06T20:16:24.739Z,2.74
2024-01-06T20:26:29.847Z,2.61
2024-01-06T20:36:34.321Z,2.68
2024-01-06T20:46:37.631Z,2.68
2024-01-06T20:56:42.437Z,2.50
2024-01-06T21:06:45.305Z,2.44
2024-01-06T21:16:51.297Z,2.51
2024-01-06T21:26:54.579Z,2.49
2024-01-06T21:36:59.708Z,2.50
2024-01-06T21:47:04.212Z,2.44
2024-01-06T21:57:09.410Z,2.25
2024-01-06T22:07:13.238Z,2.28
2024-01-06T22:17:17.587Z,2.26
2024-01-06T22:27:21.012Z,2.18
2024-01-06T22:37:25.310Z,2.20
2024-01-06T22:47:28.153Z,2.29
2024-01-06T22:57:32.396Z,2.43
2024-01-06T23:07:35.284Z,2.49
2024-01-06T23:17:39.663Z,2.34
2024-01-06T23:27:42.521Z,2.38
2024-01-06T23:37:51.369Z,2.25
2024-01-06T23:47:54.259Z,2.30
2024-01-06T23:57:58.655Z,2.21
